North Reading, Massachusetts
Current Conditions -  °F | °C
As of 11:53 PM on Friday 28 Nov 2014 (Local Time) from KBVY Reporting Station
Clear Clear  
Wind Chill: 13°   Ceiling: Unl
Heat Index: 22°   Visibility: 10mi
Dew Point: 13°   Wind: 7mph
Humidity: 68%   Direction: 300°WNW
Pressure: 30.2"   Gusts: NA
Location:  42.57°N, 71.08°W
Report Text: KBVY 290453Z AUTO 30006KT 10SM CLR M06/M11 A3020 RMK AO2 SLP224 T10561106 400061056
Loading
Personal Weather Stations






























Interactive Weather Map New forecast layout! Learn more

10-Day Weather Forecast

Advertisements
Track Severe Weather on mobile